Flight Track Log - Related Links

Times and Time Zones

All times are in EDT time to prevent confusion due to time zone crossing. See the SWA718 flight status page for this flight to view local times or setup timezone preferences in your user account.

Time Position Orientation Groundspeed Altitude Reporting Facility
EDT Latitude Longitude Course Direction KTS MPH feet Rate Location/Type
Thu 05:57:44 PM 29.6544 -95.2917 77° East 140 161 1,100  Level Houston Center
Thu 05:58:58 PM 29.6644 -95.2400 77° East 275 316 3,800 2,043 Climbing Houston Center
Thu 05:59:18 PM 29.6547 -95.2342 152° Southeast 282 325 4,300 3,934 Climbing Houston Center
Thu 05:59:59 PM 29.5958 -95.2242 172° South 246 283 7,800 4,258 Climbing Houston Center
Thu 06:00:20 PM 29.5728 -95.2153 161° South 262 302 8,700 2,747 Climbing Houston Center
Thu 06:01:22 PM 29.5669 -95.1236 94° East 320 368 11,600 2,952 Climbing Houston Center
Thu 06:02:24 PM 29.5939 -94.9939 77° East 351 404 14,800 2,640 Climbing Houston Center
Thu 06:03:27 PM 29.6167 -94.8794 77° East 364 419 17,100 1,742 Climbing Houston Center
Thu 06:04:28 PM 29.6425 -94.7444 78° East 416 479 18,400 1,756 Climbing Houston Center
Thu 06:05:30 PM 29.6708 -94.5986 77° East 458 527 20,700 2,016 Climbing Houston Center
Thu 06:06:33 PM 29.7003 -94.4481 77° East 478 550 22,600 1,776 Climbing Houston Center
Thu 06:07:35 PM 29.7147 -94.2878 84° East 515 593 24,400 1,645 Climbing Houston Center
Thu 06:08:37 PM 29.6925 -94.0894 97° East 524 603 26,000 1,597 Climbing Houston Center
Thu 06:09:39 PM 29.6856 -93.9161 93° East 545 627 27,700 1,839 Climbing Houston Center
Thu 06:10:41 PM 29.6836 -93.7428 91° East 546 628 29,800 1,887 Climbing Houston Center
Thu 06:11:43 PM 29.6814 -93.5692 91° East 545 627 31,600 1,790 Climbing Houston Center
Thu 06:12:45 PM 29.6781 -93.3958 91° East 545 627 33,500 1,742 Climbing Houston Center
Thu 06:13:47 PM 29.6761 -93.2111 91° East 539 620 35,200 1,123 Climbing Houston Center
Thu 06:15:00 PM 29.6680 -93.0442 93° East  Level FlightAware Approximate
Thu 06:15:52 PM 29.6697 -92.8378 93° East 534 615 37,000  Level Houston Center
Thu 06:16:54 PM 29.6672 -92.6706 91° East 528 608 37,000  Level Houston Center
Thu 06:17:56 PM 29.6647 -92.5031 91° East 527 606 37,000  Level Houston Center
Thu 06:18:58 PM 29.6547 -92.3375 94° East 524 603 37,000  Level Houston Center
Thu 06:20:00 PM 29.6222 -92.1750 103° East 521 600 37,000  Level Houston Center
Thu 06:21:03 PM 29.5825 -91.9817 103° East 522 601 37,000 240 Level Houston Center
Thu 06:22:05 PM 29.5478 -91.8214 104° East 521 600 37,500 823 Climbing Houston Center
Thu 06:23:07 PM 29.5194 -91.6803 103° East 518 596 38,700 726 Climbing Houston Center
Thu 06:24:09 PM 29.4789 -91.4903 104° East 514 592 39,000 145 Climbing Houston Center
Thu 06:25:11 PM 29.4453 -91.3339 104° East 509 586 39,000  Level Houston Center
Thu 06:26:13 PM 29.4114 -91.1772 104° East 508 585 39,000  Level Houston Center
Thu 06:27:15 PM 29.3789 -91.0214 103° East 506 582 39,000  Level Houston Center
Thu 06:28:17 PM 29.3442 -90.8653 104° East 507 583 39,000  Level Houston Center
Thu 06:29:20 PM 29.3028 -90.6794 104° East 505 581 39,000  Level Houston Center
Thu 06:30:22 PM 29.2689 -90.5242 104° East 504 580 39,000  Level Houston Center
Thu 06:31:24 PM 29.2333 -90.3706 105° East 503 579 39,000  Level Houston Center
Thu 06:32:26 PM 29.1953 -90.2167 106° East 505 581 39,000  Level Houston Center
Thu 06:33:28 PM 29.1581 -90.0644 106° East 501 577 39,000  Level Houston Center
Thu 06:34:30 PM 29.1128 -89.8825 106° East 499 574 39,000  Level Houston Center
Thu 06:35:32 PM 29.0744 -89.7278 106° East 505 581 39,000  Level Houston Center
Thu 06:36:34 PM 29.0369 -89.5756 106° East 504 580 39,000  Level Houston Center
Thu 06:37:37 PM 28.9997 -89.4233 106° East 501 577 39,000  Level Houston Center
Thu 06:38:39 PM 28.9603 -89.2700 106° East 504 580 39,000  Level Houston Center
Thu 06:39:41 PM 28.9144 -89.0881 106° East 502 578 39,000  Level Houston Center
Thu 06:40:43 PM 28.8769 -88.9361 106° East 501 577 39,000  Level Houston Center
Thu 06:41:45 PM 28.8375 -88.7842 106° East 501 577 39,000  Level Houston Center
Thu 06:42:47 PM 28.7986 -88.6336 106° East 500 575 39,000  Level Houston Center
Thu 06:43:49 PM 28.7603 -88.4828 106° East 498 573 39,000  Level Houston Center
Thu 06:44:51 PM 28.7217 -88.3311 106° East 500 575 39,000  Level Houston Center
Thu 06:45:54 PM 28.6744 -88.1517 107° East 495 570 39,000  Level Houston Center
Thu 06:46:56 PM 28.6356 -87.9986 106° East 498 573 39,000  Level Houston Center
Thu 06:47:58 PM 28.5958 -87.8503 107° East 497 572 39,000  Level Houston Center
Thu 06:49:00 PM 28.5581 -87.7031 106° East 489 563 39,000  Level Houston Center
Thu 06:49:56 PM 28.5142 -87.5508 108° East 477 549 39,000  Level Jacksonville Center
Thu 06:50:56 PM 28.4817 -87.4078 104° East 483 556 39,000  Level Jacksonville Center
Thu 06:51:56 PM 28.4450 -87.2644 106° East 483 556 39,000  Level Jacksonville Center
Thu 06:52:56 PM 28.4019 -87.1139 108° East 489 563 39,000  Level Jacksonville Center
Thu 06:53:56 PM 28.3608 -86.9661 108° East 489 563 39,000  Level Jacksonville Center
Thu 06:54:56 PM 28.3175 -86.8133 108° East 489 563 39,000  Level Jacksonville Center
Thu 06:55:56 PM 28.2803 -86.6658 106° East 489 563 39,000  Level Jacksonville Center
Thu 06:56:56 PM 28.2367 -86.5111 108° East 494 568 39,000  Level Jacksonville Center
Thu 06:57:56 PM 28.1969 -86.3661 107° East 487 560 39,000  Level Jacksonville Center
Thu 06:58:56 PM 28.1550 -86.2211 108° East 487 560 39,000  Level Jacksonville Center
Thu 06:59:56 PM 28.1147 -86.0761 107° East 480 552 39,000  Level Jacksonville Center
Thu 07:00:56 PM 28.0786 -85.9269 105° East 486 559 39,000  Level Jacksonville Center
Thu 07:01:56 PM 28.0531 -85.7756 101° East 486 559 39,000  Level Jacksonville Center
Thu 07:02:56 PM 28.0269 -85.6269 101° East 477 549 39,000  Level Jacksonville Center
Thu 07:03:56 PM 28.0028 -85.4875 101° East 482 555 39,000  Level Jacksonville Center
Thu 07:06:03 PM 27.9422 -85.1519 101° East 504 580 39,000  Level Miami Center
Thu 07:07:03 PM 27.9297 -85.0058 95° East 486 559 39,000  Level Miami Center
Thu 07:08:03 PM 27.9192 -84.8619 95° East 486 559 39,000  Level Miami Center
Thu 07:09:03 PM 27.9106 -84.7136 94° East 486 559 39,000 -500 Level Miami Center
Thu 07:10:03 PM 27.9039 -84.5653 93° East 480 552 38,000 -2,000 Descending Miami Center
Thu 07:11:03 PM 27.9036 -84.4175 90° East 480 552 35,000 -2,650 Descending Miami Center
Thu 07:12:03 PM 27.8950 -84.2619 94° East 485 558 32,700 -1,850 Descending Miami Center
Thu 07:13:03 PM 27.8883 -84.1044 93° East 490 564 31,300 -850 Descending Miami Center
Thu 07:14:03 PM 27.8858 -83.9494 91° East 495 570 31,000 -150 Descending Miami Center
Thu 07:15:03 PM 27.8786 -83.7964 93° East 495 570 31,000 -200 Level Miami Center
Thu 07:16:03 PM 27.8719 -83.6317 93° East 495 570 30,600 -1,550 Descending Miami Center
Thu 07:17:03 PM 27.8664 -83.4789 92° East 495 570 27,900 -2,600 Descending Miami Center
Thu 07:18:03 PM 27.8586 -83.3306 93° East 482 555 25,400 -2,450 Descending Miami Center
Thu 07:19:03 PM 27.8567 -83.1850 91° East 475 547 23,000 -1,500 Descending Miami Center
Thu 07:20:03 PM 27.8481 -83.0483 94° East 455 524 22,400 -800 Descending Miami Center
Thu 07:21:03 PM 27.8414 -82.9119 93° East 442 509 21,400 -950 Descending Miami Center
Thu 07:22:03 PM 27.8383 -82.7850 92° East 442 509 20,500 -950 Descending Miami Center
Thu 07:23:03 PM 27.8289 -82.6556 95° East 432 497 19,500 -1,000 Descending Miami Center
Thu 07:24:03 PM 27.8297 -82.5314 90° East 417 480 18,500 -1,050 Descending Miami Center
Thu 07:25:03 PM 27.8642 -82.4017 73° East 377 434 17,400 -1,050 Descending Miami Center
Thu 07:26:03 PM 27.9019 -82.2858 70° East 382 440 16,400 -889 Descending Miami Center
Thu 07:27:45 PM 27.9667 -82.0833 70° East 385 443 15,000 -481 Descending Orlando TRACON
Thu 07:28:45 PM 28.0000 -81.9833 69° East 381 438 15,100 50 Climbing Orlando TRACON
Thu 07:29:45 PM 28.0500 -81.8667 64° Northeast 383 441 15,100 -417 Level Orlando TRACON
Thu 07:30:40 PM 28.1000 -81.7833 56° Northeast 382 440 14,300 -950 Descending Orlando TRACON
Thu 07:31:45 PM 28.1667 -81.6667 57° Northeast 369 425 13,200 -1,650 Descending Orlando TRACON
Thu 07:32:40 PM 28.2167 -81.5833 56° Northeast 361 415 11,000 -1,550 Descending Orlando TRACON
Thu 07:33:45 PM 28.2833 -81.5000 48° Northeast 316 364 10,100 -1,238 Descending Orlando TRACON
Thu 07:34:46 PM 28.3333 -81.4333 50° Northeast 301 346 8,400 -1,636 Descending Orlando TRACON
Thu 07:35:46 PM 28.4167 -81.4167 10° North 296 341 6,800 -1,190 Descending Orlando TRACON
Thu 07:36:52 PM 28.5000 -81.4167 360° North 258 297 5,900 -714 Descending Orlando TRACON
Thu 07:37:52 PM 28.5667 -81.4167 360° North 227 261 5,300 -850 Descending Orlando TRACON
Thu 07:38:52 PM 28.6333 -81.4167 360° North 213 245 4,200 -1,000 Descending Orlando TRACON
Thu 07:39:52 PM 28.6667 -81.3667 53° Northeast 207 238 3,300 -800 Descending Orlando TRACON
Thu 07:40:52 PM 28.6333 -81.3333 139° Southeast 194 223 2,600 -421 Descending Orlando TRACON
Thu 07:41:46 PM 28.5833 -81.3000 150° Southeast 191 220 2,500 -316 Descending Orlando TRACON
Thu 07:42:46 PM 28.5333 -81.3000 180° South 166 191 2,000 -500 Descending Orlando TRACON

Login

Don't have an account? Register now (free) for customized features, flight alerts, and more!